Rothville, Missouri
Current Conditions -  °F | °C
As of 5:55 AM on Friday 31 Oct 2014 (Local Time) from KIRK Reporting Station
Few Clouds Few Clouds  
Wind Chill: 28°   Ceiling: Unl
Heat Index: 37°   Visibility: 10mi
Dew Point: 25°   Wind: 16mph
Humidity: 62%   Direction: 340°NNW
Pressure: 30.32"   Gusts: 28mph
Location:  39.65°N, 93.06°W
Report Text: KIRK 311055Z AUTO 34014G24KT 10SM FEW035 03/M04 A3032 RMK AO2 PK WND 35028/1012 SLP273 T00281039
Loading
Personal Weather Stations






























Interactive Weather Map
Tropical Storm Tracking
New forecast layout! Learn more

10-Day Weather Forecast

Advertisements
Track Severe Weather on mobile